sensor_id;sensor_type;location;lat;lon;timestamp;P1;durP1;ratioP1;P2;durP2;ratioP2
24429;SDS011;12613;47.408;8.412;2023-09-18T00:00:47;9.65;;;6.18;;
24429;SDS011;12613;47.408;8.412;2023-09-18T00:03:18;7.30;;;3.92;;
24429;SDS011;12613;47.408;8.412;2023-09-18T00:05:48;8.88;;;4.20;;
24429;SDS011;12613;47.408;8.412;2023-09-18T00:08:17;7.05;;;3.85;;
24429;SDS011;12613;47.408;8.412;2023-09-18T00:10:47;6.97;;;4.38;;
24429;SDS011;12613;47.408;8.412;2023-09-18T00:13:19;6.95;;;4.03;;
24429;SDS011;12613;47.408;8.412;2023-09-18T00:15:49;8.20;;;4.45;;
24429;SDS011;12613;47.408;8.412;2023-09-18T00:18:21;4.75;;;4.03;;
24429;SDS011;12613;47.408;8.412;2023-09-18T00:20:48;6.43;;;4.57;;
24429;SDS011;12613;47.408;8.412;2023-09-18T00:23:17;5.10;;;3.88;;
24429;SDS011;12613;47.408;8.412;2023-09-18T00:25:46;4.95;;;4.15;;
24429;SDS011;12613;47.408;8.412;2023-09-18T00:28:14;6.60;;;3.55;;
24429;SDS011;12613;47.408;8.412;2023-09-18T00:30:48;6.88;;;4.30;;
24429;SDS011;12613;47.408;8.412;2023-09-18T00:33:17;6.35;;;3.88;;
24429;SDS011;12613;47.408;8.412;2023-09-18T00:35:47;7.47;;;4.32;;
24429;SDS011;12613;47.408;8.412;2023-09-18T00:38:15;5.05;;;4.20;;
24429;SDS011;12613;47.408;8.412;2023-09-18T00:40:43;7.15;;;4.63;;
24429;SDS011;12613;47.408;8.412;2023-09-18T00:43:10;8.15;;;3.70;;
24429;SDS011;12613;47.408;8.412;2023-09-18T00:45:42;6.35;;;3.72;;
24429;SDS011;12613;47.408;8.412;2023-09-18T00:48:15;6.93;;;4.25;;
24429;SDS011;12613;47.408;8.412;2023-09-18T00:50:45;5.38;;;3.65;;
24429;SDS011;12613;47.408;8.412;2023-09-18T00:53:15;6.78;;;3.88;;
24429;SDS011;12613;47.408;8.412;2023-09-18T00:55:45;5.10;;;3.58;;
24429;SDS011;12613;47.408;8.412;2023-09-18T00:58:15;8.68;;;3.83;;
24429;SDS011;12613;47.408;8.412;2023-09-18T01:00:43;3.95;;;3.55;;
24429;SDS011;12613;47.408;8.412;2023-09-18T01:03:11;7.03;;;3.55;;
24429;SDS011;12613;47.408;8.412;2023-09-18T01:05:43;8.30;;;4.13;;
24429;SDS011;12613;47.408;8.412;2023-09-18T01:08:14;5.05;;;4.22;;
24429;SDS011;12613;47.408;8.412;2023-09-18T01:11:03;6.43;;;4.20;;
24429;SDS011;12613;47.408;8.412;2023-09-18T01:13:51;11.27;;;4.28;;
24429;SDS011;12613;47.408;8.412;2023-09-18T01:16:51;6.10;;;4.15;;
24429;SDS011;12613;47.408;8.412;2023-09-18T01:22:11;10.10;;;4.00;;
24429;SDS011;12613;47.408;8.412;2023-09-18T01:24:41;9.30;;;4.10;;
24429;SDS011;12613;47.408;8.412;2023-09-18T01:27:10;4.50;;;3.58;;
24429;SDS011;12613;47.408;8.412;2023-09-18T01:29:39;7.55;;;4.22;;
24429;SDS011;12613;47.408;8.412;2023-09-18T01:32:07;7.90;;;4.55;;
24429;SDS011;12613;47.408;8.412;2023-09-18T01:34:45;5.03;;;3.72;;
24429;SDS011;12613;47.408;8.412;2023-09-18T01:37:21;6.15;;;3.92;;
24429;SDS011;12613;47.408;8.412;2023-09-18T01:39:52;9.07;;;3.97;;
24429;SDS011;12613;47.408;8.412;2023-09-18T01:42:23;5.57;;;4.18;;
24429;SDS011;12613;47.408;8.412;2023-09-18T01:44:53;10.88;;;3.95;;
24429;SDS011;12613;47.408;8.412;2023-09-18T01:47:22;7.45;;;4.18;;
24429;SDS011;12613;47.408;8.412;2023-09-18T01:49:49;5.35;;;4.13;;
24429;SDS011;12613;47.408;8.412;2023-09-18T01:52:17;10.02;;;4.03;;
24429;SDS011;12613;47.408;8.412;2023-09-18T01:54:44;7.13;;;4.32;;
24429;SDS011;12613;47.408;8.412;2023-09-18T01:57:14;5.28;;;3.88;;
24429;SDS011;12613;47.408;8.412;2023-09-18T01:59:43;10.30;;;4.55;;
24429;SDS011;12613;47.408;8.412;2023-09-18T02:02:11;8.43;;;4.15;;
24429;SDS011;12613;47.408;8.412;2023-09-18T02:04:40;6.47;;;4.30;;
24429;SDS011;12613;47.408;8.412;2023-09-18T02:07:10;5.60;;;3.83;;
24429;SDS011;12613;47.408;8.412;2023-09-18T02:09:38;6.85;;;3.72;;
24429;SDS011;12613;47.408;8.412;2023-09-18T02:12:06;7.43;;;4.03;;
24429;SDS011;12613;47.408;8.412;2023-09-18T02:14:35;6.00;;;3.92;;
24429;SDS011;12613;47.408;8.412;2023-09-18T02:17:01;8.38;;;3.65;;
24429;SDS011;12613;47.408;8.412;2023-09-18T02:19:31;4.88;;;3.88;;
24429;SDS011;12613;47.408;8.412;2023-09-18T02:21:59;9.38;;;4.13;;
24429;SDS011;12613;47.408;8.412;2023-09-18T02:24:28;5.57;;;3.65;;
24429;SDS011;12613;47.408;8.412;2023-09-18T02:26:54;5.50;;;4.13;;
24429;SDS011;12613;47.408;8.412;2023-09-18T02:29:22;5.90;;;3.83;;
24429;SDS011;12613;47.408;8.412;2023-09-18T02:31:50;7.50;;;3.47;;
24429;SDS011;12613;47.408;8.412;2023-09-18T02:34:18;8.00;;;3.90;;
24429;SDS011;12613;47.408;8.412;2023-09-18T02:36:47;6.45;;;3.60;;
24429;SDS011;12613;47.408;8.412;2023-09-18T02:39:15;7.00;;;4.13;;
24429;SDS011;12613;47.408;8.412;2023-09-18T02:41:43;6.00;;;3.35;;
24429;SDS011;12613;47.408;8.412;2023-09-18T02:44:12;6.88;;;4.60;;
24429;SDS011;12613;47.408;8.412;2023-09-18T02:46:41;10.32;;;6.95;;
24429;SDS011;12613;47.408;8.412;2023-09-18T02:49:09;10.55;;;4.63;;
24429;SDS011;12613;47.408;8.412;2023-09-18T02:51:35;8.20;;;4.53;;
24429;SDS011;12613;47.408;8.412;2023-09-18T02:54:03;9.10;;;5.13;;
24429;SDS011;12613;47.408;8.412;2023-09-18T02:56:31;5.45;;;3.38;;
24429;SDS011;12613;47.408;8.412;2023-09-18T02:58:58;6.50;;;3.00;;
24429;SDS011;12613;47.408;8.412;2023-09-18T03:01:26;12.15;;;3.78;;
24429;SDS011;12613;47.408;8.412;2023-09-18T03:03:53;7.07;;;3.28;;
24429;SDS011;12613;47.408;8.412;2023-09-18T03:06:21;8.52;;;2.95;;
24429;SDS011;12613;47.408;8.412;2023-09-18T03:08:50;6.78;;;2.67;;
24429;SDS011;12613;47.408;8.412;2023-09-18T03:11:19;9.43;;;3.92;;
24429;SDS011;12613;47.408;8.412;2023-09-18T03:13:47;9.27;;;3.58;;
24429;SDS011;12613;47.408;8.412;2023-09-18T03:16:15;9.82;;;3.00;;
24429;SDS011;12613;47.408;8.412;2023-09-18T03:18:44;8.45;;;3.70;;
24429;SDS011;12613;47.408;8.412;2023-09-18T03:21:11;11.82;;;3.30;;
24429;SDS011;12613;47.408;8.412;2023-09-18T03:23:40;11.60;;;3.53;;
24429;SDS011;12613;47.408;8.412;2023-09-18T03:26:09;8.38;;;3.35;;
24429;SDS011;12613;47.408;8.412;2023-09-18T03:28:39;13.50;;;3.30;;
24429;SDS011;12613;47.408;8.412;2023-09-18T03:31:07;8.60;;;2.85;;
24429;SDS011;12613;47.408;8.412;2023-09-18T03:33:35;15.80;;;3.38;;
24429;SDS011;12613;47.408;8.412;2023-09-18T03:36:03;13.02;;;2.72;;
24429;SDS011;12613;47.408;8.412;2023-09-18T03:38:30;4.93;;;3.00;;
24429;SDS011;12613;47.408;8.412;2023-09-18T03:41:01;7.15;;;2.80;;
24429;SDS011;12613;47.408;8.412;2023-09-18T03:43:27;6.13;;;2.50;;
24429;SDS011;12613;47.408;8.412;2023-09-18T03:45:55;10.35;;;4.20;;
24429;SDS011;12613;47.408;8.412;2023-09-18T03:48:32;9.73;;;2.55;;
24429;SDS011;12613;47.408;8.412;2023-09-18T03:51:05;9.73;;;3.03;;
24429;SDS011;12613;47.408;8.412;2023-09-18T03:53:35;11.27;;;2.88;;
24429;SDS011;12613;47.408;8.412;2023-09-18T03:56:04;4.03;;;2.50;;
24429;SDS011;12613;47.408;8.412;2023-09-18T03:58:32;8.13;;;2.90;;
24429;SDS011;12613;47.408;8.412;2023-09-18T04:01:00;7.95;;;3.10;;
24429;SDS011;12613;47.408;8.412;2023-09-18T04:03:28;8.27;;;2.45;;
24429;SDS011;12613;47.408;8.412;2023-09-18T04:05:55;7.75;;;2.83;;
24429;SDS011;12613;47.408;8.412;2023-09-18T04:08:23;10.77;;;3.15;;
24429;SDS011;12613;47.408;8.412;2023-09-18T04:10:52;4.38;;;2.42;;
24429;SDS011;12613;47.408;8.412;2023-09-18T04:13:21;5.45;;;2.58;;
24429;SDS011;12613;47.408;8.412;2023-09-18T04:15:49;10.65;;;2.70;;
24429;SDS011;12613;47.408;8.412;2023-09-18T04:18:17;12.13;;;3.20;;
24429;SDS011;12613;47.408;8.412;2023-09-18T04:20:46;11.77;;;3.03;;
24429;SDS011;12613;47.408;8.412;2023-09-18T04:23:29;9.80;;;2.67;;
24429;SDS011;12613;47.408;8.412;2023-09-18T04:26:05;7.95;;;2.97;;
24429;SDS011;12613;47.408;8.412;2023-09-18T04:28:34;9.10;;;2.55;;
24429;SDS011;12613;47.408;8.412;2023-09-18T04:31:03;9.35;;;2.55;;
24429;SDS011;12613;47.408;8.412;2023-09-18T04:33:31;7.30;;;2.78;;
24429;SDS011;12613;47.408;8.412;2023-09-18T04:35:59;7.68;;;3.08;;
24429;SDS011;12613;47.408;8.412;2023-09-18T04:38:27;6.20;;;2.92;;
24429;SDS011;12613;47.408;8.412;2023-09-18T04:40:59;9.10;;;3.00;;
24429;SDS011;12613;47.408;8.412;2023-09-18T04:43:26;7.38;;;3.15;;
24429;SDS011;12613;47.408;8.412;2023-09-18T04:45:57;7.30;;;2.78;;
24429;SDS011;12613;47.408;8.412;2023-09-18T04:48:26;8.63;;;3.28;;
24429;SDS011;12613;47.408;8.412;2023-09-18T04:50:55;11.02;;;2.97;;
24429;SDS011;12613;47.408;8.412;2023-09-18T04:53:24;7.35;;;3.55;;
24429;SDS011;12613;47.408;8.412;2023-09-18T04:55:51;10.77;;;3.33;;
24429;SDS011;12613;47.408;8.412;2023-09-18T04:58:19;11.48;;;3.30;;
24429;SDS011;12613;47.408;8.412;2023-09-18T05:00:46;8.75;;;3.20;;
24429;SDS011;12613;47.408;8.412;2023-09-18T05:03:23;7.90;;;3.40;;
24429;SDS011;12613;47.408;8.412;2023-09-18T05:05:52;6.45;;;3.10;;
24429;SDS011;12613;47.408;8.412;2023-09-18T05:08:21;14.60;;;3.33;;
24429;SDS011;12613;47.408;8.412;2023-09-18T05:10:51;8.25;;;2.92;;
24429;SDS011;12613;47.408;8.412;2023-09-18T05:13:20;13.45;;;2.97;;
24429;SDS011;12613;47.408;8.412;2023-09-18T05:15:49;8.02;;;3.08;;
24429;SDS011;12613;47.408;8.412;2023-09-18T05:18:16;6.40;;;3.20;;
24429;SDS011;12613;47.408;8.412;2023-09-18T05:20:45;11.30;;;3.30;;
24429;SDS011;12613;47.408;8.412;2023-09-18T05:23:13;6.45;;;3.28;;
24429;SDS011;12613;47.408;8.412;2023-09-18T05:25:42;10.00;;;3.20;;
24429;SDS011;12613;47.408;8.412;2023-09-18T05:28:09;11.50;;;3.42;;
24429;SDS011;12613;47.408;8.412;2023-09-18T05:30:44;10.18;;;4.10;;
24429;SDS011;12613;47.408;8.412;2023-09-18T05:33:12;10.00;;;3.42;;
24429;SDS011;12613;47.408;8.412;2023-09-18T05:35:42;20.65;;;3.85;;
24429;SDS011;12613;47.408;8.412;2023-09-18T05:38:10;12.23;;;3.17;;
24429;SDS011;12613;47.408;8.412;2023-09-18T05:40:43;8.23;;;3.22;;
24429;SDS011;12613;47.408;8.412;2023-09-18T05:43:14;7.03;;;2.78;;
24429;SDS011;12613;47.408;8.412;2023-09-18T05:45:43;12.40;;;4.35;;
24429;SDS011;12613;47.408;8.412;2023-09-18T05:48:11;11.38;;;3.15;;
24429;SDS011;12613;47.408;8.412;2023-09-18T05:50:38;7.70;;;3.17;;
24429;SDS011;12613;47.408;8.412;2023-09-18T05:53:07;6.28;;;3.10;;
24429;SDS011;12613;47.408;8.412;2023-09-18T05:55:36;8.63;;;3.03;;
24429;SDS011;12613;47.408;8.412;2023-09-18T05:58:15;9.27;;;4.05;;
24429;SDS011;12613;47.408;8.412;2023-09-18T06:00:44;10.82;;;4.10;;
24429;SDS011;12613;47.408;8.412;2023-09-18T06:03:13;10.07;;;2.83;;
24429;SDS011;12613;47.408;8.412;2023-09-18T06:05:44;16.88;;;4.70;;
24429;SDS011;12613;47.408;8.412;2023-09-18T06:08:13;10.13;;;3.42;;
24429;SDS011;12613;47.408;8.412;2023-09-18T06:10:44;10.50;;;3.35;;
24429;SDS011;12613;47.408;8.412;2023-09-18T06:13:19;5.40;;;3.30;;
24429;SDS011;12613;47.408;8.412;2023-09-18T06:16:06;9.93;;;3.47;;
24429;SDS011;12613;47.408;8.412;2023-09-18T06:18:35;7.45;;;3.13;;
24429;SDS011;12613;47.408;8.412;2023-09-18T06:21:04;7.93;;;3.60;;
24429;SDS011;12613;47.408;8.412;2023-09-18T06:23:33;8.02;;;3.33;;
24429;SDS011;12613;47.408;8.412;2023-09-18T06:26:02;10.48;;;3.00;;
24429;SDS011;12613;47.408;8.412;2023-09-18T06:28:31;10.80;;;3.70;;
24429;SDS011;12613;47.408;8.412;2023-09-18T06:30:59;8.77;;;3.40;;
24429;SDS011;12613;47.408;8.412;2023-09-18T06:33:28;8.20;;;3.20;;
24429;SDS011;12613;47.408;8.412;2023-09-18T06:35:56;7.63;;;3.03;;
24429;SDS011;12613;47.408;8.412;2023-09-18T06:38:23;6.70;;;2.92;;
24429;SDS011;12613;47.408;8.412;2023-09-18T06:40:51;14.32;;;3.65;;
24429;SDS011;12613;47.408;8.412;2023-09-18T06:43:23;8.85;;;3.25;;
24429;SDS011;12613;47.408;8.412;2023-09-18T06:46:03;9.23;;;3.72;;
24429;SDS011;12613;47.408;8.412;2023-09-18T06:48:29;7.78;;;4.15;;
24429;SDS011;12613;47.408;8.412;2023-09-18T06:50:58;8.30;;;2.58;;
24429;SDS011;12613;47.408;8.412;2023-09-18T06:53:27;10.65;;;3.08;;
24429;SDS011;12613;47.408;8.412;2023-09-18T06:55:56;8.35;;;3.17;;
24429;SDS011;12613;47.408;8.412;2023-09-18T06:58:25;10.38;;;3.40;;
24429;SDS011;12613;47.408;8.412;2023-09-18T07:00:58;12.10;;;3.63;;
24429;SDS011;12613;47.408;8.412;2023-09-18T07:03:26;10.40;;;3.88;;
24429;SDS011;12613;47.408;8.412;2023-09-18T07:05:53;8.63;;;2.85;;
24429;SDS011;12613;47.408;8.412;2023-09-18T07:08:22;9.75;;;3.53;;
24429;SDS011;12613;47.408;8.412;2023-09-18T07:10:50;11.32;;;2.88;;
24429;SDS011;12613;47.408;8.412;2023-09-18T07:13:19;9.95;;;3.28;;
24429;SDS011;12613;47.408;8.412;2023-09-18T07:15:48;9.38;;;3.63;;
24429;SDS011;12613;47.408;8.412;2023-09-18T07:18:16;11.07;;;3.45;;
24429;SDS011;12613;47.408;8.412;2023-09-18T07:20:44;10.60;;;3.00;;
24429;SDS011;12613;47.408;8.412;2023-09-18T07:23:12;7.53;;;2.85;;
24429;SDS011;12613;47.408;8.412;2023-09-18T07:25:41;6.00;;;2.88;;
24429;SDS011;12613;47.408;8.412;2023-09-18T07:28:09;8.38;;;2.88;;
24429;SDS011;12613;47.408;8.412;2023-09-18T07:30:41;4.93;;;2.35;;
24429;SDS011;12613;47.408;8.412;2023-09-18T07:33:13;8.05;;;3.28;;
24429;SDS011;12613;47.408;8.412;2023-09-18T07:35:47;5.07;;;2.78;;
24429;SDS011;12613;47.408;8.412;2023-09-18T07:38:17;5.35;;;3.13;;
24429;SDS011;12613;47.408;8.412;2023-09-18T07:40:46;8.23;;;3.30;;
24429;SDS011;12613;47.408;8.412;2023-09-18T07:43:15;6.13;;;2.10;;
24429;SDS011;12613;47.408;8.412;2023-09-18T07:45:43;8.60;;;2.67;;
24429;SDS011;12613;47.408;8.412;2023-09-18T07:48:12;5.90;;;2.60;;
24429;SDS011;12613;47.408;8.412;2023-09-18T07:50:45;7.70;;;2.70;;
24429;SDS011;12613;47.408;8.412;2023-09-18T07:53:14;8.68;;;3.00;;
24429;SDS011;12613;47.408;8.412;2023-09-18T07:55:42;7.38;;;2.90;;
24429;SDS011;12613;47.408;8.412;2023-09-18T07:58:11;6.60;;;3.13;;
24429;SDS011;12613;47.408;8.412;2023-09-18T08:00:39;5.78;;;3.40;;
24429;SDS011;12613;47.408;8.412;2023-09-18T08:03:08;7.65;;;3.63;;
24429;SDS011;12613;47.408;8.412;2023-09-18T08:05:42;7.55;;;2.55;;
24429;SDS011;12613;47.408;8.412;2023-09-18T08:08:13;6.30;;;3.83;;
24429;SDS011;12613;47.408;8.412;2023-09-18T08:10:42;7.35;;;3.15;;
24429;SDS011;12613;47.408;8.412;2023-09-18T08:13:11;7.82;;;2.92;;
24429;SDS011;12613;47.408;8.412;2023-09-18T08:15:41;9.63;;;3.28;;
24429;SDS011;12613;47.408;8.412;2023-09-18T08:18:11;7.75;;;3.00;;
24429;SDS011;12613;47.408;8.412;2023-09-18T08:20:42;7.68;;;2.80;;
24429;SDS011;12613;47.408;8.412;2023-09-18T08:23:11;7.93;;;3.58;;
24429;SDS011;12613;47.408;8.412;2023-09-18T08:25:40;14.27;;;3.00;;
24429;SDS011;12613;47.408;8.412;2023-09-18T08:28:07;8.40;;;3.05;;
24429;SDS011;12613;47.408;8.412;2023-09-18T08:30:36;10.73;;;3.40;;
24429;SDS011;12613;47.408;8.412;2023-09-18T08:33:06;6.80;;;4.03;;
24429;SDS011;12613;47.408;8.412;2023-09-18T08:35:36;6.35;;;3.03;;
24429;SDS011;12613;47.408;8.412;2023-09-18T08:38:05;8.27;;;3.33;;
24429;SDS011;12613;47.408;8.412;2023-09-18T08:40:36;10.95;;;2.55;;
24429;SDS011;12613;47.408;8.412;2023-09-18T08:43:07;6.18;;;2.95;;
24429;SDS011;12613;47.408;8.412;2023-09-18T08:48:27;7.32;;;2.78;;
24429;SDS011;12613;47.408;8.412;2023-09-18T08:51:05;5.65;;;2.47;;
24429;SDS011;12613;47.408;8.412;2023-09-18T08:53:33;6.95;;;2.85;;
24429;SDS011;12613;47.408;8.412;2023-09-18T08:56:03;7.90;;;2.35;;
24429;SDS011;12613;47.408;8.412;2023-09-18T08:58:33;7.97;;;2.50;;
24429;SDS011;12613;47.408;8.412;2023-09-18T09:01:11;8.05;;;2.50;;
24429;SDS011;12613;47.408;8.412;2023-09-18T09:03:41;6.65;;;1.83;;
24429;SDS011;12613;47.408;8.412;2023-09-18T09:06:11;5.30;;;1.63;;
24429;SDS011;12613;47.408;8.412;2023-09-18T09:08:55;4.53;;;1.85;;
24429;SDS011;12613;47.408;8.412;2023-09-18T09:11:28;8.30;;;3.20;;
24429;SDS011;12613;47.408;8.412;2023-09-18T09:14:12;3.95;;;1.50;;
24429;SDS011;12613;47.408;8.412;2023-09-18T09:16:50;7.35;;;1.83;;
24429;SDS011;12613;47.408;8.412;2023-09-18T09:19:27;6.20;;;2.40;;
24429;SDS011;12613;47.408;8.412;2023-09-18T09:22:02;6.25;;;2.15;;
24429;SDS011;12613;47.408;8.412;2023-09-18T09:27:05;7.80;;;2.33;;
24429;SDS011;12613;47.408;8.412;2023-09-18T09:29:34;3.55;;;1.20;;
24429;SDS011;12613;47.408;8.412;2023-09-18T09:32:16;5.72;;;2.17;;
24429;SDS011;12613;47.408;8.412;2023-09-18T09:34:47;4.30;;;1.70;;
24429;SDS011;12613;47.408;8.412;2023-09-18T09:37:15;5.57;;;1.42;;
24429;SDS011;12613;47.408;8.412;2023-09-18T09:39:50;6.68;;;1.55;;
24429;SDS011;12613;47.408;8.412;2023-09-18T09:42:19;2.95;;;1.30;;
24429;SDS011;12613;47.408;8.412;2023-09-18T09:45:11;2.58;;;1.58;;
24429;SDS011;12613;47.408;8.412;2023-09-18T09:47:38;3.47;;;1.45;;
24429;SDS011;12613;47.408;8.412;2023-09-18T09:50:11;4.68;;;1.55;;
24429;SDS011;12613;47.408;8.412;2023-09-18T09:52:49;3.55;;;1.58;;
24429;SDS011;12613;47.408;8.412;2023-09-18T09:55:29;4.53;;;1.30;;
24429;SDS011;12613;47.408;8.412;2023-09-18T09:58:01;4.13;;;1.35;;
24429;SDS011;12613;47.408;8.412;2023-09-18T10:00:39;5.78;;;1.70;;
24429;SDS011;12613;47.408;8.412;2023-09-18T10:03:19;3.22;;;2.08;;
24429;SDS011;12613;47.408;8.412;2023-09-18T10:05:47;3.65;;;1.42;;
24429;SDS011;12613;47.408;8.412;2023-09-18T10:08:23;5.10;;;2.47;;
24429;SDS011;12613;47.408;8.412;2023-09-18T10:10:56;6.13;;;1.77;;
24429;SDS011;12613;47.408;8.412;2023-09-18T10:13:46;3.17;;;1.70;;
24429;SDS011;12613;47.408;8.412;2023-09-18T10:16:18;3.67;;;1.30;;
24429;SDS011;12613;47.408;8.412;2023-09-18T10:21:38;3.00;;;1.50;;
24429;SDS011;12613;47.408;8.412;2023-09-18T10:26:56;6.88;;;1.55;;
24429;SDS011;12613;47.408;8.412;2023-09-18T10:29:32;3.10;;;1.45;;
24429;SDS011;12613;47.408;8.412;2023-09-18T10:32:05;2.15;;;1.58;;
24429;SDS011;12613;47.408;8.412;2023-09-18T10:34:35;2.15;;;1.45;;
24429;SDS011;12613;47.408;8.412;2023-09-18T10:37:04;2.47;;;1.55;;
24429;SDS011;12613;47.408;8.412;2023-09-18T10:39:35;2.97;;;1.73;;
24429;SDS011;12613;47.408;8.412;2023-09-18T10:42:04;2.25;;;1.15;;
24429;SDS011;12613;47.408;8.412;2023-09-18T10:44:35;4.30;;;1.42;;
24429;SDS011;12613;47.408;8.412;2023-09-18T10:47:08;6.07;;;2.20;;
24429;SDS011;12613;47.408;8.412;2023-09-18T10:49:38;4.72;;;2.90;;
24429;SDS011;12613;47.408;8.412;2023-09-18T10:52:10;7.05;;;3.30;;
24429;SDS011;12613;47.408;8.412;2023-09-18T10:54:42;6.13;;;1.92;;
24429;SDS011;12613;47.408;8.412;2023-09-18T10:57:10;2.80;;;1.48;;
24429;SDS011;12613;47.408;8.412;2023-09-18T10:59:44;5.63;;;2.60;;
24429;SDS011;12613;47.408;8.412;2023-09-18T11:02:16;2.60;;;1.50;;
24429;SDS011;12613;47.408;8.412;2023-09-18T11:04:44;8.77;;;2.42;;
24429;SDS011;12613;47.408;8.412;2023-09-18T11:07:19;5.55;;;1.60;;
24429;SDS011;12613;47.408;8.412;2023-09-18T11:09:47;4.43;;;1.27;;
24429;SDS011;12613;47.408;8.412;2023-09-18T11:12:17;3.50;;;1.30;;
24429;SDS011;12613;47.408;8.412;2023-09-18T11:14:49;3.97;;;1.08;;
24429;SDS011;12613;47.408;8.412;2023-09-18T11:17:41;3.47;;;1.70;;
24429;SDS011;12613;47.408;8.412;2023-09-18T11:20:19;4.63;;;2.05;;
24429;SDS011;12613;47.408;8.412;2023-09-18T11:26:05;7.40;;;2.88;;
24429;SDS011;12613;47.408;8.412;2023-09-18T11:28:36;5.97;;;2.58;;
24429;SDS011;12613;47.408;8.412;2023-09-18T11:31:05;4.20;;;2.00;;
24429;SDS011;12613;47.408;8.412;2023-09-18T11:33:39;2.95;;;1.45;;
24429;SDS011;12613;47.408;8.412;2023-09-18T11:36:14;3.45;;;1.50;;
24429;SDS011;12613;47.408;8.412;2023-09-18T11:38:59;5.10;;;1.80;;
24429;SDS011;12613;47.408;8.412;2023-09-18T11:41:37;1.85;;;1.10;;
24429;SDS011;12613;47.408;8.412;2023-09-18T11:46:57;1.48;;;0.85;;
24429;SDS011;12613;47.408;8.412;2023-09-18T11:49:25;4.00;;;1.92;;
24429;SDS011;12613;47.408;8.412;2023-09-18T11:51:58;11.65;;;4.97;;
24429;SDS011;12613;47.408;8.412;2023-09-18T11:54:31;5.95;;;3.50;;
24429;SDS011;12613;47.408;8.412;2023-09-18T11:57:19;3.40;;;2.05;;
24429;SDS011;12613;47.408;8.412;2023-09-18T11:59:47;5.55;;;1.83;;
24429;SDS011;12613;47.408;8.412;2023-09-18T12:02:26;2.88;;;2.00;;
24429;SDS011;12613;47.408;8.412;2023-09-18T12:05:10;3.27;;;1.53;;
24429;SDS011;12613;47.408;8.412;2023-09-18T12:07:43;3.60;;;1.80;;
24429;SDS011;12613;47.408;8.412;2023-09-18T12:10:16;4.13;;;1.90;;
24429;SDS011;12613;47.408;8.412;2023-09-18T12:12:46;4.32;;;1.40;;
24429;SDS011;12613;47.408;8.412;2023-09-18T12:15:18;3.28;;;1.42;;
24429;SDS011;12613;47.408;8.412;2023-09-18T12:17:47;4.57;;;1.92;;
24429;SDS011;12613;47.408;8.412;2023-09-18T12:20:20;4.40;;;1.25;;
24429;SDS011;12613;47.408;8.412;2023-09-18T12:22:49;2.25;;;1.70;;
24429;SDS011;12613;47.408;8.412;2023-09-18T12:25:18;4.28;;;1.70;;
24429;SDS011;12613;47.408;8.412;2023-09-18T12:27:53;2.72;;;1.38;;
24429;SDS011;12613;47.408;8.412;2023-09-18T12:30:22;3.10;;;1.52;;
24429;SDS011;12613;47.408;8.412;2023-09-18T12:32:51;3.55;;;1.75;;
24429;SDS011;12613;47.408;8.412;2023-09-18T12:35:25;5.82;;;2.65;;
24429;SDS011;12613;47.408;8.412;2023-09-18T12:37:55;9.23;;;2.75;;
24429;SDS011;12613;47.408;8.412;2023-09-18T12:40:27;4.95;;;2.28;;
24429;SDS011;12613;47.408;8.412;2023-09-18T12:42:56;4.78;;;2.03;;
24429;SDS011;12613;47.408;8.412;2023-09-18T12:45:26;3.78;;;1.50;;
24429;SDS011;12613;47.408;8.412;2023-09-18T12:47:56;2.53;;;1.70;;
24429;SDS011;12613;47.408;8.412;2023-09-18T12:50:25;3.78;;;1.60;;
24429;SDS011;12613;47.408;8.412;2023-09-18T12:53:05;2.35;;;1.65;;
24429;SDS011;12613;47.408;8.412;2023-09-18T12:55:33;1.63;;;1.42;;
24429;SDS011;12613;47.408;8.412;2023-09-18T12:58:05;4.10;;;1.85;;
24429;SDS011;12613;47.408;8.412;2023-09-18T13:00:35;3.42;;;1.90;;
24429;SDS011;12613;47.408;8.412;2023-09-18T13:03:12;2.38;;;1.70;;
24429;SDS011;12613;47.408;8.412;2023-09-18T13:05:40;4.70;;;2.10;;
24429;SDS011;12613;47.408;8.412;2023-09-18T13:08:09;2.22;;;1.52;;
24429;SDS011;12613;47.408;8.412;2023-09-18T13:10:44;2.90;;;1.52;;
24429;SDS011;12613;47.408;8.412;2023-09-18T13:13:17;5.82;;;1.13;;
24429;SDS011;12613;47.408;8.412;2023-09-18T13:15:47;1.95;;;0.65;;
24429;SDS011;12613;47.408;8.412;2023-09-18T13:18:16;9.02;;;4.07;;
24429;SDS011;12613;47.408;8.412;2023-09-18T13:20:45;5.28;;;3.03;;
24429;SDS011;12613;47.408;8.412;2023-09-18T13:23:19;2.78;;;1.23;;
24429;SDS011;12613;47.408;8.412;2023-09-18T13:25:58;3.28;;;1.30;;
24429;SDS011;12613;47.408;8.412;2023-09-18T13:28:27;4.68;;;1.92;;
24429;SDS011;12613;47.408;8.412;2023-09-18T13:30:58;3.25;;;1.38;;
24429;SDS011;12613;47.408;8.412;2023-09-18T13:33:30;1.52;;;1.10;;
24429;SDS011;12613;47.408;8.412;2023-09-18T13:36:00;1.70;;;0.93;;
24429;SDS011;12613;47.408;8.412;2023-09-18T13:38:29;1.23;;;1.08;;
24429;SDS011;12613;47.408;8.412;2023-09-18T13:40:56;1.98;;;1.23;;
24429;SDS011;12613;47.408;8.412;2023-09-18T13:43:25;3.92;;;2.05;;
24429;SDS011;12613;47.408;8.412;2023-09-18T13:45:57;1.40;;;1.20;;
24429;SDS011;12613;47.408;8.412;2023-09-18T13:48:24;2.05;;;1.23;;
24429;SDS011;12613;47.408;8.412;2023-09-18T13:50:54;5.60;;;1.70;;
24429;SDS011;12613;47.408;8.412;2023-09-18T13:53:23;2.75;;;1.05;;
24429;SDS011;12613;47.408;8.412;2023-09-18T13:55:52;1.42;;;1.08;;
24429;SDS011;12613;47.408;8.412;2023-09-18T13:58:21;1.65;;;1.15;;
24429;SDS011;12613;47.408;8.412;2023-09-18T14:00:52;2.55;;;1.20;;
24429;SDS011;12613;47.408;8.412;2023-09-18T14:03:20;4.47;;;1.05;;
24429;SDS011;12613;47.408;8.412;2023-09-18T14:05:49;7.75;;;4.93;;
24429;SDS011;12613;47.408;8.412;2023-09-18T14:08:22;2.15;;;1.30;;
24429;SDS011;12613;47.408;8.412;2023-09-18T14:10:50;3.17;;;0.88;;
24429;SDS011;12613;47.408;8.412;2023-09-18T14:13:19;5.50;;;1.90;;
24429;SDS011;12613;47.408;8.412;2023-09-18T14:15:49;1.98;;;1.20;;
24429;SDS011;12613;47.408;8.412;2023-09-18T14:18:18;4.88;;;1.25;;
24429;SDS011;12613;47.408;8.412;2023-09-18T14:20:46;3.50;;;1.10;;
24429;SDS011;12613;47.408;8.412;2023-09-18T14:23:15;5.50;;;1.33;;
24429;SDS011;12613;47.408;8.412;2023-09-18T14:25:43;6.43;;;2.10;;
24429;SDS011;12613;47.408;8.412;2023-09-18T14:28:11;2.63;;;2.00;;
24429;SDS011;12613;47.408;8.412;2023-09-18T14:30:40;1.98;;;1.25;;
24429;SDS011;12613;47.408;8.412;2023-09-18T14:33:06;3.00;;;1.90;;
24429;SDS011;12613;47.408;8.412;2023-09-18T14:35:40;1.77;;;1.30;;
24429;SDS011;12613;47.408;8.412;2023-09-18T14:38:08;5.80;;;1.90;;
24429;SDS011;12613;47.408;8.412;2023-09-18T14:40:35;6.53;;;5.00;;
24429;SDS011;12613;47.408;8.412;2023-09-18T14:43:08;17.67;;;12.43;;
24429;SDS011;12613;47.408;8.412;2023-09-18T14:45:37;9.68;;;5.00;;
24429;SDS011;12613;47.408;8.412;2023-09-18T14:48:06;4.07;;;2.58;;
24429;SDS011;12613;47.408;8.412;2023-09-18T14:50:35;2.88;;;1.17;;
24429;SDS011;12613;47.408;8.412;2023-09-18T14:53:03;3.00;;;1.30;;
24429;SDS011;12613;47.408;8.412;2023-09-18T14:55:33;2.03;;;1.20;;
24429;SDS011;12613;47.408;8.412;2023-09-18T14:58:01;2.20;;;1.48;;
24429;SDS011;12613;47.408;8.412;2023-09-18T15:00:31;1.75;;;1.38;;
24429;SDS011;12613;47.408;8.412;2023-09-18T15:03:00;1.52;;;1.40;;
24429;SDS011;12613;47.408;8.412;2023-09-18T15:05:29;4.28;;;1.35;;
24429;SDS011;12613;47.408;8.412;2023-09-18T15:07:58;2.70;;;1.65;;
24429;SDS011;12613;47.408;8.412;2023-09-18T15:10:27;1.60;;;1.30;;
24429;SDS011;12613;47.408;8.412;2023-09-18T15:12:55;2.40;;;1.15;;
24429;SDS011;12613;47.408;8.412;2023-09-18T15:15:24;2.33;;;1.50;;
24429;SDS011;12613;47.408;8.412;2023-09-18T15:17:51;2.03;;;1.17;;
24429;SDS011;12613;47.408;8.412;2023-09-18T15:20:20;2.63;;;1.42;;
24429;SDS011;12613;47.408;8.412;2023-09-18T15:22:50;4.28;;;1.52;;
24429;SDS011;12613;47.408;8.412;2023-09-18T15:25:22;3.60;;;1.58;;